Observation data for Hereford on 07/18/2019      Previous  Date  Next       Current Mesonet Observations  Soil Data  Daily Summary Page  Observations in Plain Language
KHES 180500Z 17010G15KT 27/13 A2999 RMK A01 T02680131  RH  045%=      5-min Rain = 0
KHES 180505Z 17011G16KT 27/13 A2999 RMK A01 T02670132  RH  045%=      5-min Rain = 0
KHES 180510Z 17011G16KT 27/13 A2999 RMK A01 T02670133  RH  045%=      5-min Rain = 0
KHES 180515Z 17011KT 27/14 A2999 RMK A01 T02680135  RH  046%=      5-min Rain = 0
KHES 180520Z 17010G16KT 27/14 A2999 RMK A01 T02680137  RH  046%=      5-min Rain = 0
KHES 180525Z 17010G16KT 27/14 A30 RMK A01 T02690139  RH  047%=      5-min Rain = 0
KHES 180530Z 17009KT 27/14 A30 RMK A01 T02680140  RH  047%=      5-min Rain = 0
KHES 180535Z 17008KT 27/14 A30 RMK A01 T02670142  RH  048%=      5-min Rain = 0
KHES 180540Z 16009KT 27/14 A30 RMK A01 T02670142  RH  048%=      5-min Rain = 0
KHES 180545Z 16009KT 27/14 A30 RMK A01 T02650143  RH  049%=      5-min Rain = 0
KHES 180550Z 16008KT 26/14 A30 RMK A01 T02640144  RH  050%=      5-min Rain = 0
KHES 180555Z 16008KT 26/14 A30 RMK A01 T02610144  RH  050%=      5-min Rain = 0
KHES 180600Z 16007KT 26/14 A30 RMK A01 T02600144  RH  051%=      5-min Rain = 0
KHES 180605Z 16007KT 26/15 A30 RMK A01 T02590145  RH  051%=      5-min Rain = 0
KHES 180610Z 15006KT 26/15 A30 RMK A01 T02570145  RH  052%=      5-min Rain = 0
KHES 180615Z 15006KT 26/15 A30 RMK A01 T02550145  RH  053%=      5-min Rain = 0
KHES 180620Z 16007KT 25/15 A30 RMK A01 T02520146  RH  054%=      5-min Rain = 0
KHES 180625Z 16007KT 25/15 A2999 RMK A01 T02500146  RH  055%=      5-min Rain = 0
KHES 180630Z 16008KT 25/15 A2999 RMK A01 T02490147  RH  055%=      5-min Rain = 0
KHES 180635Z 17008KT 25/15 A2999 RMK A01 T02490147  RH  056%=      5-min Rain = 0
KHES 180640Z 17007KT 25/15 A2999 RMK A01 T02460147  RH  056%=      5-min Rain = 0
KHES 180645Z 18006KT 25/15 A30 RMK A01 T02460148  RH  057%=      5-min Rain = 0
KHES 180650Z 18007KT 25/15 A30 RMK A01 T02450149  RH  058%=      5-min Rain = 0
KHES 180655Z 18008KT 24/15 A30 RMK A01 T02440150  RH  058%=      5-min Rain = 0
KHES 180700Z 17007KT 24/15 A30 RMK A01 T02420149  RH  059%=      5-min Rain = 0
KHES 180705Z 17007KT 24/15 A30 RMK A01 T02410149  RH  059%=      5-min Rain = 0
KHES 180710Z 17006KT 24/15 A30 RMK A01 T02400149  RH  059%=      5-min Rain = 0
KHES 180715Z 17006KT 24/15 A30 RMK A01 T02390150  RH  060%=      5-min Rain = 0
KHES 180720Z 17006KT 24/15 A30 RMK A01 T02390150  RH  060%=      5-min Rain = 0
KHES 180725Z 18006KT 24/15 A30 RMK A01 T02390151  RH  060%=      5-min Rain = 0
KHES 180730Z 18008KT 24/15 A30 RMK A01 T02390151  RH  061%=      5-min Rain = 0
KHES 180735Z 18010KT 24/15 A30 RMK A01 T02440151  RH  059%=      5-min Rain = 0
KHES 180740Z 19012G17KT 25/15 A2999 RMK A01 T02500150  RH  056%=      5-min Rain = 0
KHES 180745Z 19013KT 25/15 A2999 RMK A01 T02520149  RH  055%=      5-min Rain = 0
KHES 180750Z 19012G17KT 25/15 A2999 RMK A01 T02510149  RH  055%=      5-min Rain = 0
KHES 180755Z 19011KT 25/15 A2999 RMK A01 T02500148  RH  056%=      5-min Rain = 0
KHES 180800Z 19012G17KT 25/15 A2999 RMK A01 T02490149  RH  056%=      5-min Rain = 0
KHES 180805Z 19012G17KT 25/15 A2999 RMK A01 T02480148  RH  056%=      5-min Rain = 0
KHES 180810Z 19013KT 25/15 A2999 RMK A01 T02480148  RH  056%=      5-min Rain = 0
KHES 180815Z 20013KT 25/15 A2999 RMK A01 T02480148  RH  056%=      5-min Rain = 0
KHES 180820Z 20012G17KT 25/15 A2998 RMK A01 T02470148  RH  057%=      5-min Rain = 0
KHES 180825Z 20012G20KT 25/15 A2998 RMK A01 T02470149  RH  057%=      5-min Rain = 0
KHES 180830Z 20012KT 25/15 A2998 RMK A01 T02450149  RH  058%=      5-min Rain = 0
KHES 180835Z 20013G19KT 25/15 A2998 RMK A01 T02450150  RH  058%=      5-min Rain = 0
KHES 180840Z 20013G19KT 25/15 A2998 RMK A01 T02450150  RH  058%=      5-min Rain = 0
KHES 180845Z 20015G20KT 25/15 A2998 RMK A01 T02450150  RH  058%=      5-min Rain = 0
KHES 180850Z 20012G20KT 24/15 A2998 RMK A01 T02440150  RH  058%=      5-min Rain = 0
KHES 180855Z 20013G19KT 24/15 A2998 RMK A01 T02430150  RH  059%=      5-min Rain = 0
KHES 180900Z 20013G20KT 24/15 A2998 RMK A01 T02420150  RH  059%=      5-min Rain = 0
KHES 180905Z 20012G17KT 24/15 A2998 RMK A01 T02420150  RH  059%=      5-min Rain = 0
KHES 180910Z 20012G19KT 24/15 A2998 RMK A01 T02400150  RH  060%=      5-min Rain = 0
KHES 180915Z 20013G19KT 24/15 A2998 RMK A01 T02410150  RH  060%=      5-min Rain = 0
KHES 180920Z 20011KT 24/15 A2998 RMK A01 T02390150  RH  060%=      5-min Rain = 0
KHES 180925Z 19011KT 24/15 A2998 RMK A01 T02380151  RH  061%=      5-min Rain = 0
KHES 180930Z 19013G19KT 24/15 A2998 RMK A01 T02380151  RH  061%=      5-min Rain = 0
KHES 180935Z 19011KT 24/15 A2998 RMK A01 T02370151  RH  061%=      5-min Rain = 0
KHES 180940Z 19011KT 24/15 A2998 RMK A01 T02370151  RH  061%=      5-min Rain = 0
KHES 180945Z 19011G16KT 24/15 A2998 RMK A01 T02360151  RH  062%=      5-min Rain = 0
KHES 180950Z 19012KT 24/15 A2998 RMK A01 T02360151  RH  062%=      5-min Rain = 0
KHES 180955Z 19012G18KT 24/15 A2998 RMK A01 T02360152  RH  062%=      5-min Rain = 0
KHES 181000Z 19011KT 24/15 A2998 RMK A01 T02350152  RH  062%=      5-min Rain = 0
KHES 181005Z 18011KT 23/15 A2998 RMK A01 T02340152  RH  063%=      5-min Rain = 0
KHES 181010Z 19011G17KT 23/15 A2998 RMK A01 T02340152  RH  063%=      5-min Rain = 0
KHES 181015Z 19012G17KT 24/15 A2998 RMK A01 T02350153  RH  063%=      5-min Rain = 0
KHES 181020Z 19011KT 24/15 A2999 RMK A01 T02360154  RH  063%=      5-min Rain = 0
KHES 181025Z 19012KT 24/15 A2999 RMK A01 T02370154  RH  063%=      5-min Rain = 0
KHES 181030Z 18012KT 24/16 A2999 RMK A01 T02380155  RH  062%=      5-min Rain = 0
KHES 181035Z 18011G16KT 24/16 A2999 RMK A01 T02380155  RH  063%=      5-min Rain = 0
KHES 181040Z 18011G17KT 24/16 A2998 RMK A01 T02380155  RH  063%=      5-min Rain = 0
KHES 181045Z 18011KT 24/16 A2998 RMK A01 T02380156  RH  063%=      5-min Rain = 0
KHES 181050Z 18011G16KT 24/16 A2998 RMK A01 T02370156  RH  063%=      5-min Rain = 0
KHES 181055Z 18012KT 24/16 A2998 RMK A01 T02360156  RH  064%=      5-min Rain = 0
KHES 181100Z 18012KT 24/16 A2998 RMK A01 T02360156  RH  064%=      5-min Rain = 0
KHES 181105Z 18013KT 24/16 A2998 RMK A01 T02350156  RH  064%=      5-min Rain = 0
KHES 181110Z 18012G17KT 23/16 A2998 RMK A01 T02340156  RH  064%=      5-min Rain = 0
KHES 181115Z 18012KT 23/16 A2998 RMK A01 T02330156  RH  065%=      5-min Rain = 0
KHES 181120Z 18011KT 23/16 A2998 RMK A01 T02320156  RH  065%=      5-min Rain = 0
KHES 181125Z 17010KT 23/16 A2999 RMK A01 T02310156  RH  066%=      5-min Rain = 0
KHES 181130Z 17011KT 23/16 A2998 RMK A01 T02300156  RH  066%=      5-min Rain = 0
KHES 181135Z 17010KT 23/16 A2998 RMK A01 T02280156  RH  067%=      5-min Rain = 0
KHES 181140Z 17011G16KT 23/16 A2998 RMK A01 T02280156  RH  067%=      5-min Rain = 0
KHES 181145Z 17011KT 23/16 A2998 RMK A01 T02260156  RH  067%=      5-min Rain = 0
KHES 181200Z 17011KT 22/16 A2998 RMK A01 T02240155  RH  068%=      5-min Rain = 0
KHES 181205Z 17012G17KT 22/16 A2998 RMK A01 T02240155  RH  068%=      5-min Rain = 0
KHES 181210Z 17011KT 22/16 A2998 RMK A01 T02230155  RH  068%=      5-min Rain = 0
KHES 181215Z 18012KT 22/16 A2998 RMK A01 T02240156  RH  069%=      5-min Rain = 0
KHES 181220Z 18011G16KT 22/16 A2998 RMK A01 T02240157  RH  069%=      5-min Rain = 0
KHES 181225Z 18013KT 23/16 A2998 RMK A01 T02250157  RH  068%=      5-min Rain = 0
KHES 181230Z 18012KT 23/16 A2998 RMK A01 T02260158  RH  068%=      5-min Rain = 0
KHES 181235Z 18012G17KT 23/16 A2998 RMK A01 T02270158  RH  068%=      5-min Rain = 0
KHES 181240Z 18012G17KT 23/16 A2998 RMK A01 T02290159  RH  068%=      5-min Rain = 0
KHES 181245Z 18011KT 23/16 A2999 RMK A01 T02320160  RH  067%=      5-min Rain = 0
KHES 181250Z 19012KT 23/16 A2999 RMK A01 T02330161  RH  067%=      5-min Rain = 0
KHES 181255Z 18013G19KT 23/16 A2999 RMK A01 T02340161  RH  066%=      5-min Rain = 0
KHES 181300Z 18013G18KT 24/16 A2999 RMK A01 T02370161  RH  066%=      5-min Rain = 0
KHES 181305Z 18013G18KT 24/16 A2999 RMK A01 T02390161  RH  065%=      5-min Rain = 0
KHES 181310Z 18014G22KT 24/16 A2999 RMK A01 T02410161  RH  064%=      5-min Rain = 0
KHES 181315Z 18015G20KT 24/16 A2999 RMK A01 T02430160  RH  063%=      5-min Rain = 0
KHES 181320Z 18015G20KT 25/16 A2999 RMK A01 T02450160  RH  062%=      5-min Rain = 0
KHES 181325Z 19015G21KT 25/16 A2999 RMK A01 T02460160  RH  061%=      5-min Rain = 0
KHES 181330Z 19015G22KT 25/16 A2999 RMK A01 T02480159  RH  060%=      5-min Rain = 0
KHES 181335Z 19014G19KT 25/16 A2999 RMK A01 T02480158  RH  060%=      5-min Rain = 0
KHES 181340Z 19015G21KT 25/16 A2999 RMK A01 T02510157  RH  059%=      5-min Rain = 0
KHES 181345Z 19015G20KT 25/16 A2999 RMK A01 T02510156  RH  058%=      5-min Rain = 0
KHES 181350Z 19014G21KT 25/16 A2999 RMK A01 T02510156  RH  058%=      5-min Rain = 0
KHES 181355Z 19013G20KT 26/16 A2999 RMK A01 T02560157  RH  057%=      5-min Rain = 0
KHES 181400Z 19015G21KT 26/16 A2999 RMK A01 T02560156  RH  057%=      5-min Rain = 0
KHES 181405Z 19014G19KT 26/16 A2999 RMK A01 T02560157  RH  057%=      5-min Rain = 0
KHES 181410Z 19016G21KT 26/16 A2999 RMK A01 T02560156  RH  056%=      5-min Rain = 0
KHES 181415Z 20014G19KT 26/16 A2999 RMK A01 T02560156  RH  057%=      5-min Rain = 0
KHES 181420Z 20014G20KT 26/16 A2999 RMK A01 T02590157  RH  056%=      5-min Rain = 0
KHES 181425Z 20014KT 26/16 A2999 RMK A01 T02590156  RH  055%=      5-min Rain = 0
KHES 181430Z 20014G19KT 26/16 A2999 RMK A01 T02610156  RH  055%=      5-min Rain = 0
KHES 181435Z 20013G20KT 26/16 A2999 RMK A01 T02640156  RH  054%=      5-min Rain = 0
KHES 181440Z 20014G20KT 27/16 A2999 RMK A01 T02680156  RH  053%=      5-min Rain = 0
KHES 181445Z 19013G19KT 27/15 A2999 RMK A01 T02710154  RH  051%=      5-min Rain = 0
KHES 181450Z 19014G20KT 27/15 A2999 RMK A01 T02720153  RH  050%=      5-min Rain = 0
KHES 181455Z 19014G21KT 28/15 A2999 RMK A01 T02750154  RH  050%=      5-min Rain = 0
KHES 181500Z 19013G18KT 28/15 A2999 RMK A01 T02750154  RH  050%=      5-min Rain = 0
KHES 181505Z 20015KT 28/15 A2999 RMK A01 T02780153  RH  049%=      5-min Rain = 0
KHES 181510Z 20014G19KT 28/15 A2998 RMK A01 T02790153  RH  048%=      5-min Rain = 0
KHES 181515Z 20015KT 28/15 A2998 RMK A01 T02800153  RH  048%=      5-min Rain = 0
KHES 181520Z 20013G18KT 28/15 A2998 RMK A01 T02840152  RH  047%=      5-min Rain = 0
KHES 181525Z 20014KT 29/15 A2998 RMK A01 T02870149  RH  045%=      5-min Rain = 0
KHES 181530Z 20012G17KT 29/15 A2998 RMK A01 T02890150  RH  045%=      5-min Rain = 0
KHES 181535Z 20010KT 30/15 A2998 RMK A01 T02960153  RH  044%=      5-min Rain = 0
KHES 181540Z 20013G18KT 29/15 A2998 RMK A01 T02940149  RH  043%=      5-min Rain = 0
KHES 181545Z 22013KT 29/15 A2998 RMK A01 T02940150  RH  043%=      5-min Rain = 0
KHES 181550Z 21013KT 30/15 A2998 RMK A01 T02950150  RH  043%=      5-min Rain = 0
KHES 181555Z 22013KT 30/15 A2998 RMK A01 T02980149  RH  042%=      5-min Rain = 0
KHES 181600Z 21012KT 30/15 A2998 RMK A01 T02960150  RH  043%=      5-min Rain = 0
KHES 181605Z 22012G17KT 30/15 A2998 RMK A01 T02980150  RH  043%=      5-min Rain = 0
KHES 181610Z 22013KT 30/15 A2998 RMK A01 T02990151  RH  042%=      5-min Rain = 0
KHES 181615Z 22011KT 30/15 A2998 RMK A01 T03030152  RH  042%=      5-min Rain = 0
KHES 181620Z 22012KT 30/15 A2998 RMK A01 T03020151  RH  042%=      5-min Rain = 0
KHES 181625Z 22011KT 30/15 A2998 RMK A01 T03040151  RH  041%=      5-min Rain = 0
KHES 181630Z 23011KT 31/15 A2998 RMK A01 T03080151  RH  040%=      5-min Rain = 0
KHES 181635Z 21011G16KT 31/15 A2998 RMK A01 T03090152  RH  040%=      5-min Rain = 0
KHES 181640Z 21011KT 31/15 A2998 RMK A01 T03090150  RH  040%=      5-min Rain = 0
KHES 181645Z 21010KT 31/15 A2997 RMK A01 T03120151  RH  039%=      5-min Rain = 0
KHES 181650Z 21011KT 31/15 A2997 RMK A01 T03120146  RH  038%=      5-min Rain = 0
KHES 181655Z 20009G15KT 32/15 A2997 RMK A01 T03150149  RH  038%=      5-min Rain = 0
KHES 181700Z 22011KT 32/15 A2997 RMK A01 T03190149  RH  037%=      5-min Rain = 0
KHES 181705Z 21011G16KT 32/15 A2997 RMK A01 T03200149  RH  037%=      5-min Rain = 0
KHES 181710Z 21009KT 32/15 A2997 RMK A01 T03230149  RH  037%=      5-min Rain = 0
KHES 181715Z 20010KT 32/15 A2997 RMK A01 T03240148  RH  036%=      5-min Rain = 0
KHES 181720Z 19010G15KT 33/15 A2997 RMK A01 T03270146  RH  035%=      5-min Rain = 0
KHES 181725Z 18010G15KT 33/14 A2997 RMK A01 T03280141  RH  034%=      5-min Rain = 0
KHES 181730Z 19010G15KT 33/14 A2997 RMK A01 T03260141  RH  034%=      5-min Rain = 0
KHES 181735Z 19011KT 33/14 A2997 RMK A01 T03310138  RH  032%=      5-min Rain = 0
KHES 181740Z 20010G15KT 33/14 A2997 RMK A01 T03340140  RH  032%=      5-min Rain = 0
KHES 181745Z 21010KT 34/14 A2997 RMK A01 T03370138  RH  031%=      5-min Rain = 0
KHES 181750Z 19010KT 34/14 A2996 RMK A01 T03360135  RH  031%=      5-min Rain = 0
KHES 181755Z 18008KT 34/14 A2996 RMK A01 T03380137  RH  031%=      5-min Rain = 0
KHES 181800Z 20009KT 34/14 A2996 RMK A01 T03390137  RH  031%=      5-min Rain = 0
KHES 181805Z 19009G15KT 34/14 A2996 RMK A01 T03400139  RH  031%=      5-min Rain = 0
KHES 181810Z 17010G16KT 34/14 A2996 RMK A01 T03420139  RH  031%=      5-min Rain = 0
KHES 181815Z 17011G16KT 35/14 A2995 RMK A01 T03450138  RH  030%=      5-min Rain = 0
KHES 181820Z 17010KT 34/14 A2995 RMK A01 T03430136  RH  030%=      5-min Rain = 0
KHES 181825Z 16012KT 35/14 A2995 RMK A01 T03480138  RH  029%=      5-min Rain = 0
KHES 181830Z 15013KT 35/14 A2995 RMK A01 T03460136  RH  029%=      5-min Rain = 0
KHES 181835Z 17013G21KT 35/13 A2995 RMK A01 T03460132  RH  029%=      5-min Rain = 0
KHES 181840Z 16011G17KT 35/13 A2994 RMK A01 T03510133  RH  028%=      5-min Rain = 0
KHES 181845Z 17012G18KT 35/13 A2994 RMK A01 T03510131  RH  028%=      5-min Rain = 0
KHES 181850Z 16012G17KT 35/13 A2994 RMK A01 T03510134  RH  028%=      5-min Rain = 0
KHES 181855Z 17013G18KT 35/13 A2994 RMK A01 T03520133  RH  028%=      5-min Rain = 0
KHES 181900Z 17011G17KT 36/13 A2994 RMK A01 T03550133  RH  027%=      5-min Rain = 0
KHES 181905Z 17011KT 36/13 A2994 RMK A01 T03570133  RH  027%=      5-min Rain = 0
KHES 181910Z 16012G17KT 36/13 A2994 RMK A01 T03560131  RH  027%=      5-min Rain = 0
KHES 181915Z 17013KT 36/13 A2994 RMK A01 T03570129  RH  027%=      5-min Rain = 0
KHES 181920Z 17012G17KT 36/13 A2994 RMK A01 T03620129  RH  026%=      5-min Rain = 0
KHES 181925Z 18012G17KT 36/13 A2994 RMK A01 T03610127  RH  026%=      5-min Rain = 0
KHES 181930Z 20012KT 36/13 A2994 RMK A01 T03590126  RH  026%=      5-min Rain = 0
KHES 181935Z 19011KT 36/13 A2993 RMK A01 T03610129  RH  026%=      5-min Rain = 0
KHES 181940Z 20011KT 37/13 A2993 RMK A01 T03650130  RH  026%=      5-min Rain = 0
KHES 181945Z 16012KT 36/13 A2993 RMK A01 T03630133  RH  026%=      5-min Rain = 0
KHES 181950Z 17014G20KT 36/14 A2993 RMK A01 T03640136  RH  027%=      5-min Rain = 0
KHES 181955Z 17015KT 36/13 A2992 RMK A01 T03620131  RH  026%=      5-min Rain = 0
KHES 182000Z 19012KT 37/13 A2992 RMK A01 T03660132  RH  026%=      5-min Rain = 0
KHES 182005Z 18011KT 37/14 A2992 RMK A01 T03680135  RH  026%=      5-min Rain = 0
KHES 182010Z 17013G21KT 37/13 A2992 RMK A01 T03670131  RH  025%=      5-min Rain = 0
KHES 182015Z 19015KT 37/13 A2992 RMK A01 T03670127  RH  025%=      5-min Rain = 0
KHES 182020Z 19011G18KT 37/13 A2992 RMK A01 T03670129  RH  025%=      5-min Rain = 0
KHES 182025Z 18014G19KT 37/13 A2991 RMK A01 T03710127  RH  024%=      5-min Rain = 0
KHES 182030Z 18013G18KT 37/12 A2991 RMK A01 T03730124  RH  024%=      5-min Rain = 0
KHES 182035Z 19013G22KT 37/12 A2991 RMK A01 T03730121  RH  023%=      5-min Rain = 0
KHES 182040Z 18012G23KT 37/12 A2991 RMK A01 T03740118  RH  022%=      5-min Rain = 0
KHES 182045Z 18015G23KT 37/11 A2991 RMK A01 T03720113  RH  022%=      5-min Rain = 0
KHES 182050Z 19012G17KT 37/12 A2991 RMK A01 T03740117  RH  022%=      5-min Rain = 0
KHES 182055Z 20015G20KT 38/12 A2991 RMK A01 T03750116  RH  022%=      5-min Rain = 0
KHES 182100Z 20013G19KT 37/11 A2991 RMK A01 T03710113  RH  022%=      5-min Rain = 0
KHES 182105Z 21015KT 37/11 A299 RMK A01 T03730112  RH  022%=      5-min Rain = 0
KHES 182110Z 18013G18KT 38/12 A299 RMK A01 T03780115  RH  021%=      5-min Rain = 0
KHES 182115Z 18014G22KT 38/12 A299 RMK A01 T03770116  RH  022%=      5-min Rain = 0
KHES 182120Z 19014G22KT 38/12 A299 RMK A01 T03780116  RH  022%=      5-min Rain = 0
KHES 182125Z 20014G19KT 38/12 A299 RMK A01 T03750116  RH  022%=      5-min Rain = 0
KHES 182130Z 19014G20KT 38/12 A2989 RMK A01 T03770118  RH  022%=      5-min Rain = 0
KHES 182135Z 18012G18KT 38/12 A2989 RMK A01 T03800122  RH  022%=      5-min Rain = 0
KHES 182140Z 17013G18KT 38/12 A2989 RMK A01 T03830122  RH  022%=      5-min Rain = 0
KHES 182145Z 19013G18KT 38/12 A2989 RMK A01 T03790118  RH  022%=      5-min Rain = 0
KHES 182150Z 20016G25KT 38/11 A2989 RMK A01 T03790110  RH  021%=      5-min Rain = 0
KHES 182155Z 20013G18KT 38/11 A2989 RMK A01 T03810113  RH  021%=      5-min Rain = 0
KHES 182200Z 20012G20KT 38/11 A2988 RMK A01 T03800112  RH  021%=      5-min Rain = 0
KHES 182205Z 19015G20KT 38/11 A2988 RMK A01 T03790108  RH  020%=      5-min Rain = 0
KHES 182210Z 21011G16KT 38/11 A2988 RMK A01 T03810111  RH  021%=      5-min Rain = 0
KHES 182215Z 18015G20KT 38/11 A2988 RMK A01 T03820113  RH  021%=      5-min Rain = 0
KHES 182220Z 18015G21KT 38/11 A2988 RMK A01 T03780108  RH  020%=      5-min Rain = 0
KHES 182225Z 18013G19KT 38/11 A2988 RMK A01 T03800107  RH  020%=      5-min Rain = 0
KHES 182230Z 17014G21KT 38/11 A2987 RMK A01 T03800109  RH  020%=      5-min Rain = 0
KHES 182235Z 18015KT 38/11 A2987 RMK A01 T03810112  RH  021%=      5-min Rain = 0
KHES 182240Z 18013G22KT 38/11 A2987 RMK A01 T03800112  RH  021%=      5-min Rain = 0
KHES 182245Z 19012G19KT 38/11 A2987 RMK A01 T03830111  RH  020%=      5-min Rain = 0
KHES 182250Z 20011KT 38/10 A2987 RMK A01 T03830102  RH  019%=      5-min Rain = 0
KHES 182255Z 20010G15KT 38/10 A2987 RMK A01 T03830098  RH  018%=      5-min Rain = 0
KHES 182300Z 20012G17KT 38/10 A2986 RMK A01 T03820098  RH  019%=      5-min Rain = 0
KHES 182305Z 17012G17KT 38/10 A2986 RMK A01 T03820097  RH  019%=      5-min Rain = 0
KHES 182310Z 17012KT 38/10 A2986 RMK A01 T03820095  RH  018%=      5-min Rain = 0
KHES 182315Z 17012G17KT 38/09 A2986 RMK A01 T03800094  RH  018%=      5-min Rain = 0
KHES 182320Z 18011KT 38/10 A2986 RMK A01 T03800095  RH  018%=      5-min Rain = 0
KHES 182325Z 17012G17KT 38/10 A2986 RMK A01 T03810097  RH  019%=      5-min Rain = 0
KHES 182330Z 17012G18KT 38/10 A2985 RMK A01 T03800096  RH  019%=      5-min Rain = 0
KHES 182335Z 17011KT 38/10 A2985 RMK A01 T03800095  RH  018%=      5-min Rain = 0
KHES 182340Z 17012G18KT 38/10 A2985 RMK A01 T03800096  RH  019%=      5-min Rain = 0
KHES 182345Z 18013KT 38/10 A2985 RMK A01 T03770099  RH  019%=      5-min Rain = 0
KHES 182350Z 16013G18KT 38/10 A2985 RMK A01 T03750103  RH  020%=      5-min Rain = 0
KHES 182355Z 16012G17KT 38/10 A2985 RMK A01 T03760103  RH  020%=      5-min Rain = 0
KHES 190000Z 17014KT 37/11 A2985 RMK A01 T03740107  RH  021%=      5-min Rain = 0
KHES 190005Z 16011G18KT 37/11 A2985 RMK A01 T03740110  RH  021%=      5-min Rain = 0
KHES 190010Z 18012G17KT 37/10 A2985 RMK A01 T03740104  RH  020%=      5-min Rain = 0
KHES 190015Z 17013G19KT 37/11 A2985 RMK A01 T03720106  RH  021%=      5-min Rain = 0
KHES 190020Z 16012KT 37/11 A2985 RMK A01 T03700107  RH  021%=      5-min Rain = 0
KHES 190025Z 17011G17KT 37/11 A2985 RMK A01 T03700107  RH  021%=      5-min Rain = 0
KHES 190030Z 17013KT 37/11 A2985 RMK A01 T03680106  RH  021%=      5-min Rain = 0
KHES 190035Z 16013G18KT 37/11 A2985 RMK A01 T03670106  RH  021%=      5-min Rain = 0
KHES 190040Z 17014G19KT 37/11 A2985 RMK A01 T03650109  RH  022%=      5-min Rain = 0
KHES 190045Z 16013G18KT 36/11 A2985 RMK A01 T03630109  RH  022%=      5-min Rain = 0
KHES 190050Z 17013G18KT 36/11 A2985 RMK A01 T03620109  RH  023%=      5-min Rain = 0
KHES 190055Z 17013G19KT 36/11 A2985 RMK A01 T03610112  RH  023%=      5-min Rain = 0
KHES 190100Z 16013G18KT 36/12 A2986 RMK A01 T03570121  RH  025%=      5-min Rain = 0
KHES 190105Z 16015G21KT 35/12 A2986 RMK A01 T03530123  RH  026%=      5-min Rain = 0
KHES 190110Z 16015G20KT 35/12 A2986 RMK A01 T03520123  RH  026%=      5-min Rain = 0
KHES 190115Z 16014G20KT 35/12 A2986 RMK A01 T03500124  RH  027%=      5-min Rain = 0
KHES 190120Z 16014G19KT 35/12 A2986 RMK A01 T03470124  RH  027%=      5-min Rain = 0
KHES 190125Z 16013KT 34/13 A2986 RMK A01 T03440125  RH  028%=      5-min Rain = 0
KHES 190130Z 16014G20KT 34/13 A2986 RMK A01 T03410125  RH  028%=      5-min Rain = 0
KHES 190135Z 17014KT 34/13 A2986 RMK A01 T03380126  RH  029%=      5-min Rain = 0
KHES 190140Z 17014G20KT 34/13 A2987 RMK A01 T03360125  RH  029%=      5-min Rain = 0
KHES 190145Z 17015G20KT 34/12 A2987 RMK A01 T03350124  RH  029%=      5-min Rain = 0
KHES 190150Z 16013G20KT 33/13 A2987 RMK A01 T03340125  RH  029%=      5-min Rain = 0
KHES 190155Z 16013G18KT 33/13 A2987 RMK A01 T03310126  RH  030%=      5-min Rain = 0
KHES 190200Z 16013G19KT 33/13 A2987 RMK A01 T03280126  RH  030%=      5-min Rain = 0
KHES 190205Z 16012G17KT 33/13 A2987 RMK A01 T03260126  RH  031%=      5-min Rain = 0
KHES 190210Z 16014G19KT 32/13 A2987 RMK A01 T03240126  RH  031%=      5-min Rain = 0
KHES 190215Z 16013KT 32/13 A2988 RMK A01 T03220127  RH  032%=      5-min Rain = 0
KHES 190220Z 17012G17KT 32/13 A2988 RMK A01 T03200127  RH  032%=      5-min Rain = 0
KHES 190225Z 17013G19KT 32/13 A2988 RMK A01 T03180127  RH  032%=      5-min Rain = 0
KHES 190230Z 16012G18KT 32/13 A2988 RMK A01 T03170128  RH  033%=      5-min Rain = 0
KHES 190235Z 17012G17KT 31/13 A2988 RMK A01 T03140128  RH  033%=      5-min Rain = 0
KHES 190240Z 16011G16KT 31/13 A2988 RMK A01 T03120129  RH  034%=      5-min Rain = 0
KHES 190245Z 16012KT 31/13 A2989 RMK A01 T03100129  RH  035%=      5-min Rain = 0
KHES 190250Z 16011KT 31/13 A2989 RMK A01 T03080130  RH  035%=      5-min Rain = 0
KHES 190255Z 16011KT 31/13 A2989 RMK A01 T03060131  RH  036%=      5-min Rain = 0
KHES 190300Z 16011KT 30/13 A2989 RMK A01 T03040131  RH  036%=      5-min Rain = 0
KHES 190305Z 16011KT 30/13 A2989 RMK A01 T03020132  RH  037%=      5-min Rain = 0
KHES 190310Z 16010KT 30/13 A2989 RMK A01 T03000132  RH  037%=      5-min Rain = 0
KHES 190315Z 16010G15KT 30/13 A299 RMK A01 T02970133  RH  038%=      5-min Rain = 0
KHES 190320Z 17010G15KT 30/13 A299 RMK A01 T02970133  RH  038%=      5-min Rain = 0
KHES 190325Z 17009KT 30/13 A299 RMK A01 T02960134  RH  039%=      5-min Rain = 0
KHES 190330Z 17010KT 30/13 A299 RMK A01 T02950133  RH  039%=      5-min Rain = 0
KHES 190335Z 16009KT 29/13 A2991 RMK A01 T02930134  RH  039%=      5-min Rain = 0
KHES 190340Z 16009KT 29/13 A2991 RMK A01 T02910134  RH  040%=      5-min Rain = 0
KHES 190345Z 17009KT 29/13 A2991 RMK A01 T02900134  RH  040%=      5-min Rain = 0
KHES 190350Z 17010KT 29/13 A2991 RMK A01 T02890134  RH  040%=      5-min Rain = 0
KHES 190355Z 17009G14KT 29/13 A2992 RMK A01 T02880134  RH  040%=      5-min Rain = 0
KHES 190400Z 17010G15KT 29/13 A2992 RMK A01 T02870133  RH  040%=      5-min Rain = 0
KHES 190405Z 17009KT 29/13 A2992 RMK A01 T02870133  RH  040%=      5-min Rain = 0
KHES 190410Z 17009KT 29/13 A2992 RMK A01 T02850133  RH  041%=      5-min Rain = 0
KHES 190415Z 16009KT 29/13 A2992 RMK A01 T02850133  RH  041%=      5-min Rain = 0
KHES 190420Z 17010KT 28/13 A2993 RMK A01 T02840132  RH  041%=      5-min Rain = 0
KHES 190425Z 17009KT 28/13 A2993 RMK A01 T02840132  RH  041%=      5-min Rain = 0
KHES 190430Z 17010KT 28/13 A2993 RMK A01 T02830131  RH  041%=      5-min Rain = 0
KHES 190435Z 17009KT 28/13 A2993 RMK A01 T02810131  RH  041%=      5-min Rain = 0
KHES 190440Z 17008KT 28/13 A2993 RMK A01 T02800131  RH  042%=      5-min Rain = 0
KHES 190445Z 17008G13KT 28/13 A2993 RMK A01 T02790131  RH  042%=      5-min Rain = 0
KHES 190450Z 16009KT 28/13 A2993 RMK A01 T02770131  RH  042%=      5-min Rain = 0
KHES 190455Z 17009G14KT 28/13 A2993 RMK A01 T02750131  RH  043%=      5-min Rain = 0

Page generated in 0.0093 seconds.